メインページ
METAR-TAF:

METAR-TAF

空港 :

ナイロビ, ケニヤ

緯度: 01-19S, 経度: 036-49E, 海抜: 1683m

現時点の気象観測

当レポートは34分前の10:00(UTC)に作成
南/南東の風 7kt
気温 20°C
湿度 56%
気圧 1023 hPa
視程10km以上
高度2200ftの千切れ雲あり

METAR: HKNW 201000Z 16007KT 9999 BKN022 20/11 Q1023

時間: 13:34 (10:34 UTC)


TAF: 見つかりません

4,000以上の空港の気象観測と天気予報(METAR報とTAF報)

利用可能な観測所は地図上に黄色い丸と赤い丸で示す。

丸の上にカーソルを重ねると観測所名を参照できる。

次にクリックすると気象観測と天気予報を参照できる。

マップの切り替え:黒色「×」印の緑ボタンをクリックして拡大、「-」印の緑ボタンをクリックして縮小、緑色の三角印をクリックして隣りの地図に切り替え


METAR-TAF: